Terminal Aerodrome Forecast
Issued by NWS

Home | Current Version | Previous Version | Text Only | Print | Product List | Glossary On
Versions: 1 2 3 4 5 6 7 8 9 10 11 12 13 14 15 16 17 18 19 20 21
000
FTAK31 PAJN 272100 AAA
TAFAJN
TAF AMD
PAJN 272111Z 2721/2818 11015G25KT P6SM SCT025 WS020/04045KT
     FM280000 11010G20KT P6SM SCT035 WS020/05045KT
     FM280300 10010KT P6SM SKC WS020/05040KT
     FM281200 VRB05KT P6SM SKC=

USA.gov is the U.S. government's official web portal to all federal, state and local government web resources and services.